sensor_id;sensor_type;location;lat;lon;timestamp;P1;durP1;ratioP1;P2;durP2;ratioP2
5841;SDS011;2947;52.276;9.946;2022-08-01T00:00:39;9.82;;;5.45;;
5841;SDS011;2947;52.276;9.946;2022-08-01T00:03:08;7.50;;;5.60;;
5841;SDS011;2947;52.276;9.946;2022-08-01T00:05:33;7.10;;;5.80;;
5841;SDS011;2947;52.276;9.946;2022-08-01T00:07:59;9.07;;;5.90;;
5841;SDS011;2947;52.276;9.946;2022-08-01T00:10:25;9.55;;;6.13;;
5841;SDS011;2947;52.276;9.946;2022-08-01T00:12:51;11.55;;;6.45;;
5841;SDS011;2947;52.276;9.946;2022-08-01T00:15:16;8.82;;;5.97;;
5841;SDS011;2947;52.276;9.946;2022-08-01T00:17:43;9.60;;;5.68;;
5841;SDS011;2947;52.276;9.946;2022-08-01T00:20:10;10.35;;;6.30;;
5841;SDS011;2947;52.276;9.946;2022-08-01T00:22:38;9.65;;;6.05;;
5841;SDS011;2947;52.276;9.946;2022-08-01T00:25:04;6.60;;;5.13;;
5841;SDS011;2947;52.276;9.946;2022-08-01T00:27:31;9.80;;;6.38;;
5841;SDS011;2947;52.276;9.946;2022-08-01T00:29:57;8.32;;;6.50;;
5841;SDS011;2947;52.276;9.946;2022-08-01T00:32:23;8.07;;;6.65;;
5841;SDS011;2947;52.276;9.946;2022-08-01T00:34:49;7.85;;;5.88;;
5841;SDS011;2947;52.276;9.946;2022-08-01T00:37:14;12.43;;;6.18;;
5841;SDS011;2947;52.276;9.946;2022-08-01T00:39:40;9.35;;;6.18;;
5841;SDS011;2947;52.276;9.946;2022-08-01T00:42:07;8.65;;;6.28;;
5841;SDS011;2947;52.276;9.946;2022-08-01T00:44:37;9.80;;;5.95;;
5841;SDS011;2947;52.276;9.946;2022-08-01T00:47:04;7.88;;;6.18;;
5841;SDS011;2947;52.276;9.946;2022-08-01T00:49:30;7.53;;;5.93;;
5841;SDS011;2947;52.276;9.946;2022-08-01T00:51:56;9.57;;;6.78;;
5841;SDS011;2947;52.276;9.946;2022-08-01T00:54:26;9.82;;;6.78;;
5841;SDS011;2947;52.276;9.946;2022-08-01T00:56:53;7.68;;;6.82;;
5841;SDS011;2947;52.276;9.946;2022-08-01T00:59:20;9.20;;;6.85;;
5841;SDS011;2947;52.276;9.946;2022-08-01T01:01:47;10.25;;;6.65;;
5841;SDS011;2947;52.276;9.946;2022-08-01T01:04:14;13.05;;;6.65;;
5841;SDS011;2947;52.276;9.946;2022-08-01T01:09:34;7.93;;;6.30;;
5841;SDS011;2947;52.276;9.946;2022-08-01T01:12:31;6.45;;;5.35;;
5841;SDS011;2947;52.276;9.946;2022-08-01T01:15:30;7.85;;;6.63;;
5841;SDS011;2947;52.276;9.946;2022-08-01T01:18:07;6.20;;;5.60;;
5841;SDS011;2947;52.276;9.946;2022-08-01T01:20:44;7.25;;;6.50;;
5841;SDS011;2947;52.276;9.946;2022-08-01T01:29:31;8.27;;;6.07;;
5841;SDS011;2947;52.276;9.946;2022-08-01T01:34:49;9.20;;;6.72;;
5841;SDS011;2947;52.276;9.946;2022-08-01T01:37:17;11.57;;;6.63;;
5841;SDS011;2947;52.276;9.946;2022-08-01T01:39:49;8.18;;;6.28;;
5841;SDS011;2947;52.276;9.946;2022-08-01T01:42:18;10.25;;;6.30;;
5841;SDS011;2947;52.276;9.946;2022-08-01T01:44:45;12.05;;;6.95;;
5841;SDS011;2947;52.276;9.946;2022-08-01T01:47:13;12.38;;;7.30;;
5841;SDS011;2947;52.276;9.946;2022-08-01T01:49:41;9.70;;;6.10;;
5841;SDS011;2947;52.276;9.946;2022-08-01T01:52:11;11.57;;;7.13;;
5841;SDS011;2947;52.276;9.946;2022-08-01T01:54:42;7.97;;;6.82;;
5841;SDS011;2947;52.276;9.946;2022-08-01T01:57:13;7.07;;;5.85;;
5841;SDS011;2947;52.276;9.946;2022-08-01T01:59:41;7.43;;;5.18;;
5841;SDS011;2947;52.276;9.946;2022-08-01T02:02:09;6.65;;;5.50;;
5841;SDS011;2947;52.276;9.946;2022-08-01T02:04:39;6.30;;;5.22;;
5841;SDS011;2947;52.276;9.946;2022-08-01T02:07:07;9.07;;;5.97;;
5841;SDS011;2947;52.276;9.946;2022-08-01T02:09:37;7.20;;;5.18;;
5841;SDS011;2947;52.276;9.946;2022-08-01T02:12:05;6.05;;;4.65;;
5841;SDS011;2947;52.276;9.946;2022-08-01T02:14:33;8.98;;;5.00;;
5841;SDS011;2947;52.276;9.946;2022-08-01T02:17:00;6.70;;;4.57;;
5841;SDS011;2947;52.276;9.946;2022-08-01T02:19:28;3.83;;;3.45;;
5841;SDS011;2947;52.276;9.946;2022-08-01T02:22:04;7.80;;;4.07;;
5841;SDS011;2947;52.276;9.946;2022-08-01T02:27:54;7.80;;;3.97;;
5841;SDS011;2947;52.276;9.946;2022-08-01T02:30:19;5.32;;;4.15;;
5841;SDS011;2947;52.276;9.946;2022-08-01T02:32:47;8.13;;;4.07;;
5841;SDS011;2947;52.276;9.946;2022-08-01T02:35:24;6.95;;;3.63;;
5841;SDS011;2947;52.276;9.946;2022-08-01T02:37:53;8.18;;;3.45;;
5841;SDS011;2947;52.276;9.946;2022-08-01T02:40:22;5.88;;;3.88;;
5841;SDS011;2947;52.276;9.946;2022-08-01T02:42:49;8.13;;;3.85;;
5841;SDS011;2947;52.276;9.946;2022-08-01T02:45:17;8.88;;;3.85;;
5841;SDS011;2947;52.276;9.946;2022-08-01T02:47:46;5.60;;;3.47;;
5841;SDS011;2947;52.276;9.946;2022-08-01T02:50:15;6.55;;;3.40;;
5841;SDS011;2947;52.276;9.946;2022-08-01T02:52:43;8.68;;;3.38;;
5841;SDS011;2947;52.276;9.946;2022-08-01T02:55:11;3.38;;;3.00;;
5841;SDS011;2947;52.276;9.946;2022-08-01T02:57:38;4.50;;;3.00;;
5841;SDS011;2947;52.276;9.946;2022-08-01T03:00:06;3.70;;;2.38;;
5841;SDS011;2947;52.276;9.946;2022-08-01T03:02:32;5.38;;;3.08;;
5841;SDS011;2947;52.276;9.946;2022-08-01T03:05:01;7.85;;;2.67;;
5841;SDS011;2947;52.276;9.946;2022-08-01T03:07:28;5.30;;;2.50;;
5841;SDS011;2947;52.276;9.946;2022-08-01T03:09:55;3.05;;;2.53;;
5841;SDS011;2947;52.276;9.946;2022-08-01T03:12:24;3.60;;;2.97;;
5841;SDS011;2947;52.276;9.946;2022-08-01T03:14:54;4.25;;;3.42;;
5841;SDS011;2947;52.276;9.946;2022-08-01T03:17:24;4.47;;;3.17;;
5841;SDS011;2947;52.276;9.946;2022-08-01T03:19:52;4.25;;;3.85;;
5841;SDS011;2947;52.276;9.946;2022-08-01T03:22:18;5.97;;;3.22;;
5841;SDS011;2947;52.276;9.946;2022-08-01T03:24:49;13.05;;;3.42;;
5841;SDS011;2947;52.276;9.946;2022-08-01T03:27:21;4.25;;;3.10;;
5841;SDS011;2947;52.276;9.946;2022-08-01T03:29:49;4.85;;;2.97;;
5841;SDS011;2947;52.276;9.946;2022-08-01T03:32:18;8.05;;;2.78;;
5841;SDS011;2947;52.276;9.946;2022-08-01T03:34:46;5.10;;;2.70;;
5841;SDS011;2947;52.276;9.946;2022-08-01T03:37:34;7.38;;;2.90;;
5841;SDS011;2947;52.276;9.946;2022-08-01T03:40:19;3.88;;;3.10;;
5841;SDS011;2947;52.276;9.946;2022-08-01T03:42:50;2.50;;;1.80;;
5841;SDS011;2947;52.276;9.946;2022-08-01T03:45:27;2.83;;;1.83;;
5841;SDS011;2947;52.276;9.946;2022-08-01T03:47:59;2.60;;;2.00;;
5841;SDS011;2947;52.276;9.946;2022-08-01T03:50:28;2.88;;;1.80;;
5841;SDS011;2947;52.276;9.946;2022-08-01T03:52:59;3.85;;;2.28;;
5841;SDS011;2947;52.276;9.946;2022-08-01T03:55:27;2.60;;;1.90;;
5841;SDS011;2947;52.276;9.946;2022-08-01T03:57:54;3.40;;;2.38;;
5841;SDS011;2947;52.276;9.946;2022-08-01T04:00:21;5.50;;;2.10;;
5841;SDS011;2947;52.276;9.946;2022-08-01T04:02:49;3.03;;;2.42;;
5841;SDS011;2947;52.276;9.946;2022-08-01T04:05:16;4.50;;;2.15;;
5841;SDS011;2947;52.276;9.946;2022-08-01T04:07:46;3.03;;;1.98;;
5841;SDS011;2947;52.276;9.946;2022-08-01T04:10:23;3.65;;;1.90;;
5841;SDS011;2947;52.276;9.946;2022-08-01T04:12:50;3.70;;;1.50;;
5841;SDS011;2947;52.276;9.946;2022-08-01T04:15:16;3.10;;;1.73;;
5841;SDS011;2947;52.276;9.946;2022-08-01T04:17:42;2.83;;;1.27;;
5841;SDS011;2947;52.276;9.946;2022-08-01T04:20:09;2.13;;;1.75;;
5841;SDS011;2947;52.276;9.946;2022-08-01T04:22:36;2.03;;;1.65;;
5841;SDS011;2947;52.276;9.946;2022-08-01T04:25:02;5.00;;;2.22;;
5841;SDS011;2947;52.276;9.946;2022-08-01T04:27:36;4.90;;;2.47;;
5841;SDS011;2947;52.276;9.946;2022-08-01T04:30:05;7.13;;;2.47;;
5841;SDS011;2947;52.276;9.946;2022-08-01T04:32:35;3.03;;;2.72;;
5841;SDS011;2947;52.276;9.946;2022-08-01T04:35:04;3.63;;;2.30;;
5841;SDS011;2947;52.276;9.946;2022-08-01T04:37:33;3.80;;;2.90;;
5841;SDS011;2947;52.276;9.946;2022-08-01T04:40:02;3.10;;;2.75;;
5841;SDS011;2947;52.276;9.946;2022-08-01T04:42:30;5.63;;;2.95;;
5841;SDS011;2947;52.276;9.946;2022-08-01T04:44:57;3.83;;;2.78;;
5841;SDS011;2947;52.276;9.946;2022-08-01T04:47:25;8.02;;;3.10;;
5841;SDS011;2947;52.276;9.946;2022-08-01T04:49:51;4.40;;;2.90;;
5841;SDS011;2947;52.276;9.946;2022-08-01T04:52:18;5.15;;;3.63;;
5841;SDS011;2947;52.276;9.946;2022-08-01T04:54:44;4.75;;;3.95;;
5841;SDS011;2947;52.276;9.946;2022-08-01T04:57:11;6.00;;;4.10;;
5841;SDS011;2947;52.276;9.946;2022-08-01T04:59:38;6.35;;;4.38;;
5841;SDS011;2947;52.276;9.946;2022-08-01T05:02:15;6.90;;;4.85;;
5841;SDS011;2947;52.276;9.946;2022-08-01T05:04:43;7.85;;;4.93;;
5841;SDS011;2947;52.276;9.946;2022-08-01T05:07:11;6.97;;;4.88;;
5841;SDS011;2947;52.276;9.946;2022-08-01T05:09:38;9.77;;;6.55;;
5841;SDS011;2947;52.276;9.946;2022-08-01T05:12:06;9.38;;;6.57;;
5841;SDS011;2947;52.276;9.946;2022-08-01T05:14:33;10.90;;;6.82;;
5841;SDS011;2947;52.276;9.946;2022-08-01T05:17:03;10.80;;;7.40;;
5841;SDS011;2947;52.276;9.946;2022-08-01T05:19:31;18.92;;;6.93;;
5841;SDS011;2947;52.276;9.946;2022-08-01T05:22:02;10.52;;;6.22;;
5841;SDS011;2947;52.276;9.946;2022-08-01T05:24:31;8.50;;;5.68;;
5841;SDS011;2947;52.276;9.946;2022-08-01T05:26:58;8.60;;;6.38;;
5841;SDS011;2947;52.276;9.946;2022-08-01T05:29:25;7.53;;;5.97;;
5841;SDS011;2947;52.276;9.946;2022-08-01T05:31:51;7.25;;;5.07;;
5841;SDS011;2947;52.276;9.946;2022-08-01T05:34:17;7.50;;;5.40;;
5841;SDS011;2947;52.276;9.946;2022-08-01T05:36:44;7.07;;;5.28;;
5841;SDS011;2947;52.276;9.946;2022-08-01T05:39:09;5.82;;;4.38;;
5841;SDS011;2947;52.276;9.946;2022-08-01T05:41:36;7.25;;;4.78;;
5841;SDS011;2947;52.276;9.946;2022-08-01T05:44:02;5.47;;;4.35;;
5841;SDS011;2947;52.276;9.946;2022-08-01T05:46:29;7.90;;;4.90;;
5841;SDS011;2947;52.276;9.946;2022-08-01T05:48:58;8.00;;;4.50;;
5841;SDS011;2947;52.276;9.946;2022-08-01T05:51:26;6.45;;;4.22;;
5841;SDS011;2947;52.276;9.946;2022-08-01T05:53:52;6.60;;;3.53;;
5841;SDS011;2947;52.276;9.946;2022-08-01T05:56:19;4.30;;;3.30;;
5841;SDS011;2947;52.276;9.946;2022-08-01T05:58:46;6.82;;;4.28;;
5841;SDS011;2947;52.276;9.946;2022-08-01T06:01:12;5.53;;;4.22;;
5841;SDS011;2947;52.276;9.946;2022-08-01T06:03:37;5.95;;;3.67;;
5841;SDS011;2947;52.276;9.946;2022-08-01T06:06:04;7.47;;;4.30;;
5841;SDS011;2947;52.276;9.946;2022-08-01T06:08:30;7.32;;;4.22;;
5841;SDS011;2947;52.276;9.946;2022-08-01T06:10:56;4.07;;;3.65;;
5841;SDS011;2947;52.276;9.946;2022-08-01T06:13:22;6.00;;;3.38;;
5841;SDS011;2947;52.276;9.946;2022-08-01T06:15:48;4.95;;;3.25;;
5841;SDS011;2947;52.276;9.946;2022-08-01T06:18:14;4.00;;;3.03;;
5841;SDS011;2947;52.276;9.946;2022-08-01T06:20:40;4.05;;;2.53;;
5841;SDS011;2947;52.276;9.946;2022-08-01T06:23:07;3.70;;;2.75;;
5841;SDS011;2947;52.276;9.946;2022-08-01T06:25:33;4.40;;;3.72;;
5841;SDS011;2947;52.276;9.946;2022-08-01T06:27:59;2.72;;;2.38;;
5841;SDS011;2947;52.276;9.946;2022-08-01T06:30:26;4.93;;;2.78;;
5841;SDS011;2947;52.276;9.946;2022-08-01T06:32:52;4.47;;;2.65;;
5841;SDS011;2947;52.276;9.946;2022-08-01T06:35:20;2.90;;;2.60;;
5841;SDS011;2947;52.276;9.946;2022-08-01T06:37:46;4.18;;;2.72;;
5841;SDS011;2947;52.276;9.946;2022-08-01T06:40:13;6.30;;;2.90;;
5841;SDS011;2947;52.276;9.946;2022-08-01T06:42:40;7.60;;;3.08;;
5841;SDS011;2947;52.276;9.946;2022-08-01T06:45:06;3.53;;;2.95;;
5841;SDS011;2947;52.276;9.946;2022-08-01T06:47:34;3.13;;;2.83;;
5841;SDS011;2947;52.276;9.946;2022-08-01T06:50:01;7.78;;;2.65;;
5841;SDS011;2947;52.276;9.946;2022-08-01T06:52:28;4.90;;;3.40;;
5841;SDS011;2947;52.276;9.946;2022-08-01T06:54:53;3.70;;;3.40;;
5841;SDS011;2947;52.276;9.946;2022-08-01T06:57:19;4.28;;;3.83;;
5841;SDS011;2947;52.276;9.946;2022-08-01T06:59:45;4.00;;;3.53;;
5841;SDS011;2947;52.276;9.946;2022-08-01T07:02:10;3.17;;;2.85;;
5841;SDS011;2947;52.276;9.946;2022-08-01T07:04:36;4.07;;;3.67;;
5841;SDS011;2947;52.276;9.946;2022-08-01T07:07:03;4.53;;;3.58;;
5841;SDS011;2947;52.276;9.946;2022-08-01T07:09:29;7.68;;;4.00;;
5841;SDS011;2947;52.276;9.946;2022-08-01T07:11:55;3.88;;;3.13;;
5841;SDS011;2947;52.276;9.946;2022-08-01T07:14:22;7.05;;;4.15;;
5841;SDS011;2947;52.276;9.946;2022-08-01T07:16:48;3.63;;;3.33;;
5841;SDS011;2947;52.276;9.946;2022-08-01T07:19:15;3.40;;;3.10;;
5841;SDS011;2947;52.276;9.946;2022-08-01T07:21:41;4.53;;;3.00;;
5841;SDS011;2947;52.276;9.946;2022-08-01T07:24:08;4.22;;;3.38;;
5841;SDS011;2947;52.276;9.946;2022-08-01T07:26:37;4.22;;;3.53;;
5841;SDS011;2947;52.276;9.946;2022-08-01T07:29:03;8.02;;;3.92;;
5841;SDS011;2947;52.276;9.946;2022-08-01T07:31:30;3.85;;;3.08;;
5841;SDS011;2947;52.276;9.946;2022-08-01T07:33:55;6.38;;;4.75;;
5841;SDS011;2947;52.276;9.946;2022-08-01T07:36:21;4.95;;;4.15;;
5841;SDS011;2947;52.276;9.946;2022-08-01T07:38:47;6.68;;;4.57;;
5841;SDS011;2947;52.276;9.946;2022-08-01T07:41:13;5.20;;;4.70;;
5841;SDS011;2947;52.276;9.946;2022-08-01T07:43:39;5.35;;;4.22;;
5841;SDS011;2947;52.276;9.946;2022-08-01T07:46:05;4.60;;;4.18;;
5841;SDS011;2947;52.276;9.946;2022-08-01T07:48:31;4.65;;;4.10;;
5841;SDS011;2947;52.276;9.946;2022-08-01T07:50:57;4.30;;;3.67;;
5841;SDS011;2947;52.276;9.946;2022-08-01T07:53:23;3.83;;;3.22;;
5841;SDS011;2947;52.276;9.946;2022-08-01T07:55:49;3.95;;;2.75;;
5841;SDS011;2947;52.276;9.946;2022-08-01T07:58:15;4.22;;;3.83;;
5841;SDS011;2947;52.276;9.946;2022-08-01T08:00:41;6.55;;;3.83;;
5841;SDS011;2947;52.276;9.946;2022-08-01T08:03:07;3.55;;;3.22;;
5841;SDS011;2947;52.276;9.946;2022-08-01T08:05:33;3.25;;;2.97;;
5841;SDS011;2947;52.276;9.946;2022-08-01T08:08:09;3.65;;;3.20;;
5841;SDS011;2947;52.276;9.946;2022-08-01T08:10:35;3.55;;;3.15;;
5841;SDS011;2947;52.276;9.946;2022-08-01T08:13:01;3.13;;;2.83;;
5841;SDS011;2947;52.276;9.946;2022-08-01T08:15:27;4.18;;;2.78;;
5841;SDS011;2947;52.276;9.946;2022-08-01T08:17:54;4.28;;;3.60;;
5841;SDS011;2947;52.276;9.946;2022-08-01T08:20:19;6.95;;;3.78;;
5841;SDS011;2947;52.276;9.946;2022-08-01T08:22:50;5.30;;;4.53;;
5841;SDS011;2947;52.276;9.946;2022-08-01T08:25:16;4.40;;;3.40;;
5841;SDS011;2947;52.276;9.946;2022-08-01T08:27:44;6.05;;;3.03;;
5841;SDS011;2947;52.276;9.946;2022-08-01T08:30:11;3.10;;;2.80;;
5841;SDS011;2947;52.276;9.946;2022-08-01T08:32:38;2.67;;;2.40;;
5841;SDS011;2947;52.276;9.946;2022-08-01T08:35:05;4.22;;;2.58;;
5841;SDS011;2947;52.276;9.946;2022-08-01T08:37:31;2.13;;;1.92;;
5841;SDS011;2947;52.276;9.946;2022-08-01T08:39:59;4.55;;;2.42;;
5841;SDS011;2947;52.276;9.946;2022-08-01T08:42:25;3.45;;;1.95;;
5841;SDS011;2947;52.276;9.946;2022-08-01T08:44:50;4.40;;;2.33;;
5841;SDS011;2947;52.276;9.946;2022-08-01T08:47:16;2.95;;;2.13;;
5841;SDS011;2947;52.276;9.946;2022-08-01T08:49:44;4.82;;;2.45;;
5841;SDS011;2947;52.276;9.946;2022-08-01T08:52:10;3.08;;;2.50;;
5841;SDS011;2947;52.276;9.946;2022-08-01T08:54:37;3.30;;;3.00;;
5841;SDS011;2947;52.276;9.946;2022-08-01T08:57:03;4.43;;;3.30;;
5841;SDS011;2947;52.276;9.946;2022-08-01T08:59:30;6.47;;;3.35;;
5841;SDS011;2947;52.276;9.946;2022-08-01T09:01:57;4.03;;;3.50;;
5841;SDS011;2947;52.276;9.946;2022-08-01T09:04:23;4.03;;;3.47;;
5841;SDS011;2947;52.276;9.946;2022-08-01T09:06:51;5.20;;;4.28;;
5841;SDS011;2947;52.276;9.946;2022-08-01T09:09:17;5.82;;;4.00;;
5841;SDS011;2947;52.276;9.946;2022-08-01T09:11:43;6.45;;;4.35;;
5841;SDS011;2947;52.276;9.946;2022-08-01T09:14:13;7.25;;;4.70;;
5841;SDS011;2947;52.276;9.946;2022-08-01T09:16:58;7.93;;;4.75;;
5841;SDS011;2947;52.276;9.946;2022-08-01T09:19:34;6.15;;;4.82;;
5841;SDS011;2947;52.276;9.946;2022-08-01T09:22:04;4.70;;;4.28;;
5841;SDS011;2947;52.276;9.946;2022-08-01T09:24:33;8.05;;;6.05;;
5841;SDS011;2947;52.276;9.946;2022-08-01T09:27:00;4.40;;;4.00;;
5841;SDS011;2947;52.276;9.946;2022-08-01T09:29:39;5.22;;;4.55;;
5841;SDS011;2947;52.276;9.946;2022-08-01T09:32:05;7.20;;;4.10;;
5841;SDS011;2947;52.276;9.946;2022-08-01T09:34:31;8.50;;;4.95;;
5841;SDS011;2947;52.276;9.946;2022-08-01T09:36:58;5.10;;;3.78;;
5841;SDS011;2947;52.276;9.946;2022-08-01T09:39:27;6.07;;;3.53;;
5841;SDS011;2947;52.276;9.946;2022-08-01T09:41:57;5.40;;;4.88;;
5841;SDS011;2947;52.276;9.946;2022-08-01T09:47:05;3.95;;;2.95;;
5841;SDS011;2947;52.276;9.946;2022-08-01T09:49:32;3.25;;;2.92;;
5841;SDS011;2947;52.276;9.946;2022-08-01T09:52:17;3.83;;;2.80;;
5841;SDS011;2947;52.276;9.946;2022-08-01T09:54:53;6.63;;;2.70;;
5841;SDS011;2947;52.276;9.946;2022-08-01T09:57:25;2.90;;;2.63;;
5841;SDS011;2947;52.276;9.946;2022-08-01T09:59:52;4.78;;;2.55;;
5841;SDS011;2947;52.276;9.946;2022-08-01T10:02:33;6.15;;;2.45;;
5841;SDS011;2947;52.276;9.946;2022-08-01T10:05:06;3.85;;;3.28;;
5841;SDS011;2947;52.276;9.946;2022-08-01T10:07:35;3.58;;;2.70;;
5841;SDS011;2947;52.276;9.946;2022-08-01T10:10:20;3.20;;;2.90;;
5841;SDS011;2947;52.276;9.946;2022-08-01T10:12:46;3.88;;;2.85;;
5841;SDS011;2947;52.276;9.946;2022-08-01T10:15:16;2.80;;;2.25;;
5841;SDS011;2947;52.276;9.946;2022-08-01T10:17:46;3.70;;;2.40;;
5841;SDS011;2947;52.276;9.946;2022-08-01T10:20:25;3.03;;;2.20;;
5841;SDS011;2947;52.276;9.946;2022-08-01T10:23:03;6.70;;;1.80;;
5841;SDS011;2947;52.276;9.946;2022-08-01T10:25:33;4.03;;;2.40;;
5841;SDS011;2947;52.276;9.946;2022-08-01T10:28:04;3.35;;;2.30;;
5841;SDS011;2947;52.276;9.946;2022-08-01T10:30:41;5.57;;;2.67;;
5841;SDS011;2947;52.276;9.946;2022-08-01T10:33:07;10.70;;;3.00;;
5841;SDS011;2947;52.276;9.946;2022-08-01T10:35:33;3.92;;;2.90;;
5841;SDS011;2947;52.276;9.946;2022-08-01T10:37:59;4.60;;;2.80;;
5841;SDS011;2947;52.276;9.946;2022-08-01T10:40:26;5.18;;;4.20;;
5841;SDS011;2947;52.276;9.946;2022-08-01T10:42:52;3.80;;;3.33;;
5841;SDS011;2947;52.276;9.946;2022-08-01T10:45:19;3.92;;;3.25;;
5841;SDS011;2947;52.276;9.946;2022-08-01T10:50:27;3.75;;;2.97;;
5841;SDS011;2947;52.276;9.946;2022-08-01T10:56:20;5.07;;;3.72;;
5841;SDS011;2947;52.276;9.946;2022-08-01T10:58:35;4.97;;;3.50;;
5841;SDS011;2947;52.276;9.946;2022-08-01T11:08:58;7.38;;;3.47;;
5841;SDS011;2947;52.276;9.946;2022-08-01T11:11:31;8.60;;;4.03;;
5841;SDS011;2947;52.276;9.946;2022-08-01T11:16:33;4.57;;;3.13;;
5841;SDS011;2947;52.276;9.946;2022-08-01T11:19:01;4.93;;;2.70;;
5841;SDS011;2947;52.276;9.946;2022-08-01T11:27:30;2.15;;;1.80;;
5841;SDS011;2947;52.276;9.946;2022-08-01T11:32:47;4.72;;;1.90;;
5841;SDS011;2947;52.276;9.946;2022-08-01T11:35:17;3.42;;;1.92;;
5841;SDS011;2947;52.276;9.946;2022-08-01T11:37:48;3.72;;;2.22;;
5841;SDS011;2947;52.276;9.946;2022-08-01T11:45:47;2.60;;;2.17;;
5841;SDS011;2947;52.276;9.946;2022-08-01T11:48:24;5.82;;;2.22;;
5841;SDS011;2947;52.276;9.946;2022-08-01T11:50:52;4.97;;;1.65;;
5841;SDS011;2947;52.276;9.946;2022-08-01T11:53:19;4.88;;;1.80;;
5841;SDS011;2947;52.276;9.946;2022-08-01T11:55:46;3.28;;;1.90;;
5841;SDS011;2947;52.276;9.946;2022-08-01T11:58:23;5.38;;;1.83;;
5841;SDS011;2947;52.276;9.946;2022-08-01T12:00:51;1.83;;;1.60;;
5841;SDS011;2947;52.276;9.946;2022-08-01T12:03:26;4.22;;;1.90;;
5841;SDS011;2947;52.276;9.946;2022-08-01T12:05:54;5.10;;;1.88;;
5841;SDS011;2947;52.276;9.946;2022-08-01T12:08:38;3.70;;;1.60;;
5841;SDS011;2947;52.276;9.946;2022-08-01T12:11:04;6.57;;;2.08;;
5841;SDS011;2947;52.276;9.946;2022-08-01T12:13:42;8.13;;;2.40;;
5841;SDS011;2947;52.276;9.946;2022-08-01T12:16:10;3.17;;;1.88;;
5841;SDS011;2947;52.276;9.946;2022-08-01T12:18:40;4.80;;;1.63;;
5841;SDS011;2947;52.276;9.946;2022-08-01T12:21:07;3.67;;;1.77;;
5841;SDS011;2947;52.276;9.946;2022-08-01T12:23:33;2.50;;;1.90;;
5841;SDS011;2947;52.276;9.946;2022-08-01T12:25:59;4.25;;;2.03;;
5841;SDS011;2947;52.276;9.946;2022-08-01T12:28:26;4.38;;;1.40;;
5841;SDS011;2947;52.276;9.946;2022-08-01T12:30:52;9.43;;;2.00;;
5841;SDS011;2947;52.276;9.946;2022-08-01T12:33:18;4.60;;;1.60;;
5841;SDS011;2947;52.276;9.946;2022-08-01T12:35:46;10.07;;;2.25;;
5841;SDS011;2947;52.276;9.946;2022-08-01T12:38:16;3.53;;;2.00;;
5841;SDS011;2947;52.276;9.946;2022-08-01T12:40:45;2.88;;;1.83;;
5841;SDS011;2947;52.276;9.946;2022-08-01T12:43:16;3.92;;;1.95;;
5841;SDS011;2947;52.276;9.946;2022-08-01T12:45:44;11.85;;;2.45;;
5841;SDS011;2947;52.276;9.946;2022-08-01T12:48:14;4.25;;;1.90;;
5841;SDS011;2947;52.276;9.946;2022-08-01T12:50:42;3.25;;;1.60;;
5841;SDS011;2947;52.276;9.946;2022-08-01T12:53:11;3.38;;;1.65;;
5841;SDS011;2947;52.276;9.946;2022-08-01T12:55:46;5.60;;;2.05;;
5841;SDS011;2947;52.276;9.946;2022-08-01T12:58:17;4.47;;;2.45;;
5841;SDS011;2947;52.276;9.946;2022-08-01T13:00:45;3.83;;;1.73;;
5841;SDS011;2947;52.276;9.946;2022-08-01T13:03:14;2.88;;;1.70;;
5841;SDS011;2947;52.276;9.946;2022-08-01T13:05:44;4.22;;;2.15;;
5841;SDS011;2947;52.276;9.946;2022-08-01T13:08:12;5.13;;;2.10;;
5841;SDS011;2947;52.276;9.946;2022-08-01T13:10:40;4.80;;;2.40;;
5841;SDS011;2947;52.276;9.946;2022-08-01T13:13:06;5.05;;;2.15;;
5841;SDS011;2947;52.276;9.946;2022-08-01T13:15:33;6.03;;;2.40;;
5841;SDS011;2947;52.276;9.946;2022-08-01T13:18:21;5.38;;;2.30;;
5841;SDS011;2947;52.276;9.946;2022-08-01T13:23:37;5.20;;;2.47;;
5841;SDS011;2947;52.276;9.946;2022-08-01T13:26:04;9.10;;;2.53;;
5841;SDS011;2947;52.276;9.946;2022-08-01T13:28:30;8.10;;;2.25;;
5841;SDS011;2947;52.276;9.946;2022-08-01T13:30:59;6.55;;;2.30;;
5841;SDS011;2947;52.276;9.946;2022-08-01T13:33:39;6.22;;;2.05;;
5841;SDS011;2947;52.276;9.946;2022-08-01T13:36:11;9.07;;;2.42;;
5841;SDS011;2947;52.276;9.946;2022-08-01T13:38:38;5.25;;;2.05;;
5841;SDS011;2947;52.276;9.946;2022-08-01T13:41:23;5.65;;;1.85;;
5841;SDS011;2947;52.276;9.946;2022-08-01T13:43:49;7.88;;;2.38;;
5841;SDS011;2947;52.276;9.946;2022-08-01T13:46:15;5.30;;;2.22;;
5841;SDS011;2947;52.276;9.946;2022-08-01T13:48:41;9.85;;;2.50;;
5841;SDS011;2947;52.276;9.946;2022-08-01T13:51:07;4.65;;;2.13;;
5841;SDS011;2947;52.276;9.946;2022-08-01T13:53:33;3.72;;;2.00;;
5841;SDS011;2947;52.276;9.946;2022-08-01T13:55:59;4.30;;;2.22;;
5841;SDS011;2947;52.276;9.946;2022-08-01T13:58:25;5.70;;;2.20;;
5841;SDS011;2947;52.276;9.946;2022-08-01T14:00:50;5.80;;;1.60;;
5841;SDS011;2947;52.276;9.946;2022-08-01T14:03:16;4.05;;;1.67;;
5841;SDS011;2947;52.276;9.946;2022-08-01T14:05:42;3.83;;;1.90;;
5841;SDS011;2947;52.276;9.946;2022-08-01T14:08:09;7.55;;;2.80;;
5841;SDS011;2947;52.276;9.946;2022-08-01T14:10:35;9.63;;;1.90;;
5841;SDS011;2947;52.276;9.946;2022-08-01T14:13:00;7.45;;;3.08;;
5841;SDS011;2947;52.276;9.946;2022-08-01T14:15:26;8.05;;;2.75;;
5841;SDS011;2947;52.276;9.946;2022-08-01T14:17:52;9.18;;;2.35;;
5841;SDS011;2947;52.276;9.946;2022-08-01T14:20:17;9.43;;;3.05;;
5841;SDS011;2947;52.276;9.946;2022-08-01T14:22:47;5.43;;;2.70;;
5841;SDS011;2947;52.276;9.946;2022-08-01T14:25:14;4.28;;;2.33;;
5841;SDS011;2947;52.276;9.946;2022-08-01T14:27:39;6.95;;;2.75;;
5841;SDS011;2947;52.276;9.946;2022-08-01T14:30:06;5.85;;;2.30;;
5841;SDS011;2947;52.276;9.946;2022-08-01T14:32:33;3.70;;;2.03;;
5841;SDS011;2947;52.276;9.946;2022-08-01T14:35:03;2.95;;;2.05;;
5841;SDS011;2947;52.276;9.946;2022-08-01T14:37:31;4.90;;;2.28;;
5841;SDS011;2947;52.276;9.946;2022-08-01T14:39:58;5.85;;;2.50;;
5841;SDS011;2947;52.276;9.946;2022-08-01T14:42:29;12.23;;;3.42;;
5841;SDS011;2947;52.276;9.946;2022-08-01T14:44:54;5.07;;;2.85;;
5841;SDS011;2947;52.276;9.946;2022-08-01T14:47:20;6.45;;;2.33;;
5841;SDS011;2947;52.276;9.946;2022-08-01T14:49:46;6.50;;;3.10;;
5841;SDS011;2947;52.276;9.946;2022-08-01T14:52:12;4.60;;;2.20;;
5841;SDS011;2947;52.276;9.946;2022-08-01T14:54:37;7.78;;;3.03;;
5841;SDS011;2947;52.276;9.946;2022-08-01T14:57:03;8.68;;;3.33;;
5841;SDS011;2947;52.276;9.946;2022-08-01T14:59:29;9.88;;;3.15;;
5841;SDS011;2947;52.276;9.946;2022-08-01T15:01:54;8.27;;;2.30;;
5841;SDS011;2947;52.276;9.946;2022-08-01T15:04:20;5.72;;;2.00;;
5841;SDS011;2947;52.276;9.946;2022-08-01T15:06:46;5.65;;;2.70;;
5841;SDS011;2947;52.276;9.946;2022-08-01T15:09:12;6.70;;;2.60;;
5841;SDS011;2947;52.276;9.946;2022-08-01T15:11:37;6.97;;;3.13;;
5841;SDS011;2947;52.276;9.946;2022-08-01T15:14:03;5.47;;;2.50;;
5841;SDS011;2947;52.276;9.946;2022-08-01T15:16:47;7.78;;;3.10;;
5841;SDS011;2947;52.276;9.946;2022-08-01T15:19:13;5.45;;;2.63;;
5841;SDS011;2947;52.276;9.946;2022-08-01T15:21:39;6.70;;;2.92;;
5841;SDS011;2947;52.276;9.946;2022-08-01T15:24:06;10.27;;;3.50;;
5841;SDS011;2947;52.276;9.946;2022-08-01T15:26:32;6.78;;;2.83;;
5841;SDS011;2947;52.276;9.946;2022-08-01T15:28:58;6.63;;;2.60;;
5841;SDS011;2947;52.276;9.946;2022-08-01T15:31:24;5.40;;;2.50;;
5841;SDS011;2947;52.276;9.946;2022-08-01T15:33:50;6.03;;;2.72;;
5841;SDS011;2947;52.276;9.946;2022-08-01T15:36:15;11.68;;;3.03;;
5841;SDS011;2947;52.276;9.946;2022-08-01T15:38:41;10.52;;;2.35;;
5841;SDS011;2947;52.276;9.946;2022-08-01T15:41:07;6.35;;;2.17;;
5841;SDS011;2947;52.276;9.946;2022-08-01T15:43:32;8.75;;;2.70;;
5841;SDS011;2947;52.276;9.946;2022-08-01T15:45:58;11.50;;;2.92;;
5841;SDS011;2947;52.276;9.946;2022-08-01T15:48:25;8.38;;;2.58;;
5841;SDS011;2947;52.276;9.946;2022-08-01T15:50:51;6.25;;;2.65;;
5841;SDS011;2947;52.276;9.946;2022-08-01T15:53:17;11.23;;;3.85;;
5841;SDS011;2947;52.276;9.946;2022-08-01T15:55:43;4.90;;;2.42;;
5841;SDS011;2947;52.276;9.946;2022-08-01T15:58:09;8.32;;;2.90;;
5841;SDS011;2947;52.276;9.946;2022-08-01T16:00:34;9.18;;;2.75;;
5841;SDS011;2947;52.276;9.946;2022-08-01T16:03:00;11.90;;;3.38;;
5841;SDS011;2947;52.276;9.946;2022-08-01T16:05:26;7.10;;;3.00;;
5841;SDS011;2947;52.276;9.946;2022-08-01T16:07:52;8.82;;;2.80;;
5841;SDS011;2947;52.276;9.946;2022-08-01T16:10:17;5.95;;;2.80;;
5841;SDS011;2947;52.276;9.946;2022-08-01T16:12:43;12.60;;;3.33;;